CYHZ/YHZ METAR and TAF weather

Enter ICAO airport designator
Station Type Date Time Source
CYHZ METAR 2018/10/21 06:00 UTC NOAA

CYHZ 210600Z 22005KT 1/4SM R14/2400FT/N FG VV001 11/11 A2952 RMK FG8 SLP998 DENSITY ALT 600FT


Station Type Date Time Source
CYHZ Decoded METAR 2018/10/21 06:00 UTC NOAA

Halifax International Airport , Canada (CYHZ) 44-53N 063-30W
Oct 21, 2018 - 02:00 AM EDT / 2018.10.21 0600 UTC
Wind: from the SW (220 degrees) at 6 MPH (5 KT):0
Visibility: 1/4 mile(s):0
Sky conditions: obscured
Weather: fog
Temperature: 51 F (11 C)
Dew Point: 51 F (11 C)
Relative Humidity: 100%
Pressure (altimeter): 29.52 in. Hg (999 hPa)
ob: CYHZ 210600Z 22005KT 1/4SM R14/2400FT/N FG VV001 11/11 A2952 RMK FG8 SLP998 DENSITY ALT 600FT
cycle: 6

Station Type Date Time Source
CYHZ TAF 2018/10/21 06:54 UTC NOAA

TAF
AMD TAF
AMD CYHZ 210552Z 2106/2206 VRB03KT P6SM SCT060
TEMPO 2106/2108 1/2SM FG VV001
FM210800 VRB03KT P6SM FEW008 PROB40 2108/2112 1/2SM FG
FM211200 36010KT P6SM SCT040
BECMG 2116/2118 34012KT
FM220000 34012KT P6SM SCT020
TEMPO 2200/2206 P6SM -SHRA BKN020
RMK NXT FCST BY 210900Z


Example: see airport list